Aérodrome :
LOGIN :

S'inscrire | Disclaimer

   EN    FR    IT 

 










Légende :    VFR   VFR Marginal   IFR   IFR Intensif   IFR Très Intensif
Visi : 
Plafond : 
>= 8 km
>= 3000ft
5 à 8 km
1000 à 3000 ft
1500m à 5 km
500 à 1000 ft
800 à 1500m
200 à 500 ft
< 800m
< 200 ft
Symboles :   Orages  Brouillard  Fortes neiges  Fortes précipitations  Vent > 20 kt
SIGMETs :   Divers  Orages  Givrage  Turbulence  Onde Orograph.  Cendres Volcan.







- Altitude de l'aérodrome : 46 ft
- Code IATA : SNN


EINN - Shannon

DERNIER METAR :
  • 200830Z 34008KT 310V010 9999 FEW022 BKN036 06/03 Q1020 NOSIG

METARs EXPIRÉS :
  • 200800Z 33009KT 9999 FEW018 SCT036 06/04 Q1020 NOSIG
  • 200730Z 33013KT 9999 FEW016 SCT032 07/04 Q1019 NOSIG
  • 200700Z 33013KT 9999 FEW016 BKN021 BKN050 07/05 Q1018 NOSIG
  • 200630Z 33014KT 9999 FEW015 SCT030 BKN050 07/05 Q1018 TEMPO 5000
  • 200600Z 32015KT 9999 FEW016 BKN023 BKN050 07/06 Q1017 NOSIG

TAF AMD TAF EINN
Valide du 20 à 08h jusqu'au 21 à 06h UTC


200845Z 2008/2106 35012KT 9999 FEW015 BKN025
BECMG 2015/2017 32009KT
BECMG 2018/2020 32004KT
BECMG 2020/2023 VRB03KT
BECMG 2100/2103 20007KT
PROB30
TEMPO 2100/2104 4000 BR
BECMG 2103/2106 17010KT
Pas de NOTAMs connus pour ce terrain.
2 SIGMETs publiés pour la FIR Shannon (EISN) :
 
Onde orographique forte
EISN SIGMET 03 VALID 200600/201000 EINN
EISN SHANNON FIR SEV MTW FCST WI N5434 W01000 - N5425 W00810 - N5422 W00800 - N5115 W00800 - N5115 W01030 - N5434 W01000 FL060/220 STNR WKN=
Onde orographique forte
EISN SIGMET 02 VALID 200600/201000 EINN
EISN SHANNON FIR SEV MTW FCST N OF LINE N5434 W01000 - N5425 W00810 FL060/220 STNR WKN=



MET'MAP, la Météo Aéronautique d'un coup d'oeil ! - Copyright ORBIFLY Décembre 2007 - Disclaimer

ORBIFLY MET'MAP TEAM :

Programmation & Développement : Alexandra Zaïnal
Conception & Développement : Baudouin d'Aumeries
Co-Programmation & Développement : Marc-Olivier Méhu
Soutien technique & logistique : Manuel Goepfert

Contact : metmap@orbifly.com




SOURCES & CREDITS :

   NOAA